Vlieland — PBFD — position and weather

sailwx.info

Track history (hours):
 
Tides and Currents Weather Stations Pressure Air Temp Water Temp Dewpoint Dewpoint Depression Visibility Wind Speed Wind Dir Waves Ship Positions

Vlieland

Last reported at 2018-Feb-21 14:30 UTC. Time now 2018-Feb-21 14:41 UTC.
Position N 43°19' W 001°54'.

Length 111 m; draft 5.8 m.

Type: Ship. MMSI: 244376000.

Date/timePositionNaut miles runAvg speedWind from/ knotsBaromVisibWave heightAir tempDewpointWater temp
2018-Feb-21 14:30N 43°19' W 001°54'0 0.0
2018-Feb-21 14:00N 43°19' W 001°54'0 0.0
2018-Feb-21 13:30N 43°19' W 001°54'0 0.0
2018-Feb-21 13:00N 43°19' W 001°54'0 0.0
2018-Feb-21 12:30N 43°19' W 001°54'0 0.0
2018-Feb-21 12:00N 43°19' W 001°54'0 0.0
2018-Feb-21 11:30N 43°19' W 001°54'0 0.0
2018-Feb-21 11:00N 43°19' W 001°54'0 0.0
2018-Feb-21 10:30N 43°19' W 001°54'0 0.0
2018-Feb-21 09:58N 43°19' W 001°54'0 0.0
2018-Feb-21 09:29N 43°19' W 001°54'0 0.0
2018-Feb-21 09:00N 43°19' W 001°54'0 0.0
2018-Feb-21 08:30N 43°19' W 001°54'0 0.0
2018-Feb-21 08:00N 43°19' W 001°54'0 0.0
2018-Feb-21 07:30N 43°19' W 001°54'0 0.0
2018-Feb-21 07:00N 43°19' W 001°54'0 0.0
2018-Feb-21 06:30N 43°19' W 001°54'0 0.0
2018-Feb-21 05:58N 43°19' W 001°54'0 0.0
2018-Feb-21 05:30N 43°19' W 001°54'0 0.0
2018-Feb-21 05:00N 43°19' W 001°54'0 0.0
2018-Feb-21 04:30N 43°19' W 001°54'0 0.0
2018-Feb-21 04:01N 43°19' W 001°54'0 0.0
2018-Feb-21 03:30N 43°19' W 001°54'0 0.0
2018-Feb-21 02:58N 43°19' W 001°54'0 0.0
2018-Feb-21 02:29N 43°19' W 001°54'0 0.0
2018-Feb-21 02:00N 43°19' W 001°54'1 0.1
2018-Feb-20 19:20N 43°19' W 001°55'2 7.0
2018-Feb-20 19:00N 43°22' W 001°57'2 3.2
2018-Feb-20 18:31N 43°23' W 001°56'2 3.4
2018-Feb-20 18:00N 43°21' W 001°57'510.4
2018-Feb-20 17:30N 43°22' W 002°04'612.0
2018-Feb-20 17:00N 43°23' W 002°12'612.4
2018-Feb-20 16:30N 43°24' W 002°20'611.6
2018-Feb-20 16:00N 43°25' W 002°28'612.2
2018-Feb-20 15:30N 43°27' W 002°36'612.7
2018-Feb-20 15:01N 43°28' W 002°45'612.5
2018-Feb-20 14:31N 43°29' W 002°53'612.0
2018-Feb-20 14:00N 43°26' W 003°01'5 9.6
2018-Feb-20 13:31N 43°23' W 003°05'3 5.9
2018-Feb-20 13:01N 43°21' W 003°02'0 0.0
2018-Feb-20 12:30N 43°21' W 003°02'0 0.0
2018-Feb-20 12:00N 43°21' W 003°02'0 0.0
2018-Feb-20 11:30N 43°21' W 003°02'0 0.0
2018-Feb-20 11:00N 43°21' W 003°02'0 0.0
2018-Feb-20 10:30N 43°21' W 003°02'0 0.0
2018-Feb-20 10:00N 43°21' W 003°02'0 0.0
2018-Feb-20 09:30N 43°21' W 003°02'0 0.0
2018-Feb-20 09:00N 43°21' W 003°02'0 0.0
2018-Feb-20 08:30N 43°21' W 003°02'0 0.0
2018-Feb-20 08:00N 43°21' W 003°02'0 0.0
2018-Feb-20 07:30N 43°21' W 003°02'0 0.0
2018-Feb-20 07:00N 43°21' W 003°02'0 0.0
2018-Feb-20 06:30N 43°21' W 003°02'0 0.0
2018-Feb-20 06:00N 43°21' W 003°02'0 0.0
2018-Feb-20 05:30N 43°21' W 003°02'0 0.0
2018-Feb-20 05:00N 43°21' W 003°02'0 0.0
2018-Feb-20 04:30N 43°21' W 003°02'0 0.0
2018-Feb-20 04:00N 43°21' W 003°02'0 0.0
2018-Feb-20 03:30N 43°21' W 003°02'0 0.0
2018-Feb-20 03:00N 43°21' W 003°02'0 0.0
2018-Feb-20 02:30N 43°21' W 003°02'0 0.0
2018-Feb-20 02:00N 43°21' W 003°02'0 0.0
2018-Feb-20 01:30N 43°21' W 003°02'0 0.0
2018-Feb-20 01:00N 43°21' W 003°02'0 0.0
2018-Feb-20 00:30N 43°21' W 003°02'0 0.0
2018-Feb-20 00:00N 43°21' W 003°02'0 0.0
2018-Feb-19 23:30N 43°21' W 003°02'0 0.0
2018-Feb-19 23:00N 43°21' W 003°02'0 0.0
2018-Feb-19 22:30N 43°21' W 003°02'0 0.0
2018-Feb-19 22:00N 43°21' W 003°02'0 0.0
2018-Feb-19 21:24N 43°21' W 003°02'0 0.0
2018-Feb-19 21:00N 43°21' W 003°02'0 0.0
2018-Feb-19 20:30N 43°21' W 003°02'0 0.0
2018-Feb-19 19:57N 43°21' W 003°02'0 0.0
2018-Feb-19 19:30N 43°21' W 003°02'0 0.0
2018-Feb-19 19:00N 43°21' W 003°02'0 0.0
2018-Feb-19 18:30N 43°21' W 003°02'0 0.0
2018-Feb-19 18:00N 43°21' W 003°02'0 0.0
2018-Feb-19 17:30N 43°21' W 003°02'0 0.0
2018-Feb-19 17:00N 43°21' W 003°02'0 0.0
2018-Feb-19 16:30N 43°21' W 003°02'0 0.0
2018-Feb-19 16:00N 43°21' W 003°02'0 0.0
2018-Feb-19 15:27N 43°21' W 003°02'0 0.0
2018-Feb-19 15:00N 43°21' W 003°02'0 0.0
2018-Feb-19 14:30N 43°21' W 003°02'0 0.0
2018-Feb-19 14:00N 43°21' W 003°02'0 0.0
2018-Feb-19 13:30N 43°21' W 003°02'0 0.0
2018-Feb-19 13:00N 43°21' W 003°02'0 0.0
2018-Feb-19 12:30N 43°21' W 003°02'0 0.0
2018-Feb-19 12:00N 43°21' W 003°02'0 0.0
2018-Feb-19 11:30N 43°21' W 003°02'0 0.0
2018-Feb-19 11:00N 43°21' W 003°02'0 0.0
2018-Feb-19 10:30N 43°21' W 003°02'0 0.0
2018-Feb-19 10:00N 43°21' W 003°02'0 0.0
2018-Feb-19 09:30N 43°21' W 003°02'0 0.0
2018-Feb-19 09:00N 43°21' W 003°02'0 0.0
2018-Feb-19 08:24N 43°21' W 003°02'0 0.0
2018-Feb-19 08:00N 43°21' W 003°02'0 0.0
2018-Feb-19 07:30N 43°21' W 003°02'0 0.0
2018-Feb-19 07:00N 43°21' W 003°02'0 0.0
2018-Feb-19 06:30N 43°21' W 003°02'0 0.0
2018-Feb-19 06:00N 43°21' W 003°02'0 0.0
2018-Feb-19 05:30N 43°21' W 003°02'0 0.0
2018-Feb-19 05:00N 43°21' W 003°02'0 0.0
2018-Feb-19 04:30N 43°21' W 003°02'0 0.0
2018-Feb-19 04:00N 43°21' W 003°02'0 0.0
2018-Feb-19 03:30N 43°21' W 003°02'0 0.0
2018-Feb-19 03:00N 43°21' W 003°02'0 0.0
2018-Feb-19 02:30N 43°21' W 003°02'0 0.0
2018-Feb-19 02:00N 43°21' W 003°02'0 0.0
2018-Feb-19 01:30N 43°21' W 003°02'0 0.0
2018-Feb-19 01:00N 43°21' W 003°02'0 0.0
2018-Feb-19 00:30N 43°21' W 003°02'0 0.0
2018-Feb-19 00:00N 43°21' W 003°02'0 0.0
2018-Feb-18 23:30N 43°21' W 003°02'0 0.0
2018-Feb-18 23:00N 43°21' W 003°02'0 0.0
2018-Feb-18 22:30N 43°21' W 003°02'0 0.0
2018-Feb-18 22:00N 43°21' W 003°02'0 0.0
2018-Feb-18 21:30N 43°21' W 003°02'0 0.0
2018-Feb-18 21:00N 43°21' W 003°02'0 0.0
2018-Feb-18 20:30N 43°21' W 003°02'0 0.0
2018-Feb-18 20:00N 43°21' W 003°02'0 0.0
2018-Feb-18 19:30N 43°21' W 003°02'0 0.0
2018-Feb-18 19:00N 43°21' W 003°02'0 0.0
2018-Feb-18 18:30N 43°21' W 003°02'0 0.0
2018-Feb-18 18:00N 43°21' W 003°02'0 0.0
2018-Feb-18 17:30N 43°21' W 003°02'0 0.0
2018-Feb-18 17:00N 43°21' W 003°02'0 0.0
2018-Feb-18 16:30N 43°21' W 003°02'0 0.0
2018-Feb-18 16:00N 43°21' W 003°02'0 0.0
2018-Feb-18 15:30N 43°21' W 003°02'0 0.0
2018-Feb-18 15:00N 43°21' W 003°02'0 0.0
2018-Feb-18 14:30N 43°21' W 003°02'0 0.0
2018-Feb-18 14:00N 43°21' W 003°02'0 0.0
2018-Feb-18 13:30N 43°21' W 003°02'0 0.0
2018-Feb-18 13:00N 43°21' W 003°02'0 0.0
2018-Feb-18 12:30N 43°21' W 003°02'0 0.0
2018-Feb-18 12:00N 43°21' W 003°02'0 0.0
2018-Feb-18 11:30N 43°21' W 003°02'0 0.0
2018-Feb-18 11:00N 43°21' W 003°02'2 4.4
2018-Feb-18 10:30N 43°22' W 003°04'5 9.1
2018-Feb-18 09:59N 43°27' W 003°07'510.1
2018-Feb-18 09:30N 43°31' W 003°08'6 9.9
2018-Feb-18 08:55N 43°37' W 003°11'4 9.6
2018-Feb-18 08:30N 43°41' W 003°13'8 9.6
2018-Feb-18 07:42N 43°48' W 003°16'2 9.6
2018-Feb-18 07:27N 43°50' W 003°17'242 9.2
2018-Feb-17 05:03N 47°41' W 005°03'1 9.1
2018-Feb-17 04:54N 47°42' W 005°03'4 8.7
2018-Feb-17 04:29N 47°46' W 005°05'4 8.3
2018-Feb-17 04:00N 47°49' W 005°07'4 7.9
2018-Feb-17 03:29N 47°54' W 005°08'4 7.4
2018-Feb-17 03:00N 47°57' W 005°10'3 7.0
2018-Feb-17 02:30N 48°00' W 005°11'3 6.8
2018-Feb-17 02:00N 48°03' W 005°13'4 7.3
2018-Feb-17 01:30N 48°07' W 005°14'4 7.6
2018-Feb-17 01:01N 48°11' W 005°16'4 8.1
2018-Feb-17 00:31N 48°14' W 005°18'5 8.6
2018-Feb-16 23:57N 48°19' W 005°21'5 9.1
2018-Feb-16 23:27N 48°23' W 005°23'4 9.7
2018-Feb-16 23:00N 48°27' W 005°24'1410.6
2018-Feb-16 21:43N 48°39' W 005°14'211.4
2018-Feb-16 21:30N 48°41' W 005°11'610.8
2018-Feb-16 20:59N 48°45' W 005°05'510.6
2018-Feb-16 20:31N 48°48' W 004°59'610.2
2018-Feb-16 19:55N 48°52' W 004°52'6 9.4
2018-Feb-16 19:14N 48°56' W 004°44'8 8.4
2018-Feb-16 18:17N 49°01' W 004°35'5 7.8
2018-Feb-16 17:42N 49°04' W 004°30'3 7.5
2018-Feb-16 17:16N 49°06' W 004°26'58 9.2
2018-Feb-16 10:57N 49°45' W 003°20'4 9.6
2018-Feb-16 10:30N 49°47' W 003°14'12 8.7
2018-Feb-16 09:05N 49°55' W 002°59'1 8.0
2018-Feb-16 09:00N 49°55' W 002°58'4 7.6
2018-Feb-16 08:30N 49°57' W 002°54'8 7.1
2018-Feb-16 07:26N 49°60' W 002°42'3 6.7
2018-Feb-16 07:00N 50°00' W 002°38'32 8.8
2018-Feb-16 03:25N 50°10' W 001°51'611.8
2018-Feb-16 02:52N 50°12' W 001°41'512.0
2018-Feb-16 02:28N 50°13' W 001°34'612.1
2018-Feb-16 02:00N 50°15' W 001°26'611.9
2018-Feb-16 01:30N 50°17' W 001°17'33 9.2
2018-Feb-15 21:53N 50°26' W 000°27'2 6.5
2018-Feb-15 21:30N 50°27' W 000°23'4 6.6
2018-Feb-15 20:58N 50°27' W 000°18'3 6.8
2018-Feb-15 20:29N 50°28' W 000°13'3 7.1
2018-Feb-15 20:00N 50°29' W 000°08'4 7.4
2018-Feb-15 19:30N 50°31' W 000°02'4 8.0
2018-Feb-15 19:00N 50°32' E 000°04'5 9.2
2018-Feb-15 18:31N 50°33' E 000°10'5 9.3
2018-Feb-15 18:00N 50°35' E 000°18'510.1
2018-Feb-15 17:30N 50°36' E 000°25'510.5
2018-Feb-15 17:00N 50°38' E 000°33'510.7
2018-Feb-15 16:30N 50°41' E 000°40'510.8
2018-Feb-15 16:00N 50°44' E 000°47'510.3
2018-Feb-15 15:30N 50°47' E 000°53'5 9.8
2018-Feb-15 15:00N 50°50' E 000°59'5 9.5
2018-Feb-15 14:30N 50°53' E 001°05'5 9.1
2018-Feb-15 14:00N 50°56' E 001°11'4 8.5
2018-Feb-15 13:30N 50°59' E 001°16'4 7.6
2018-Feb-15 13:00N 51°01' E 001°21'3 7.1
2018-Feb-15 12:30N 51°03' E 001°25'3 6.9
2018-Feb-15 12:00N 51°06' E 001°29'3 6.3
2018-Feb-15 11:30N 51°08' E 001°33'3 6.4
2018-Feb-15 11:00N 51°10' E 001°37'4 7.2
2018-Feb-15 10:30N 51°12' E 001°42'4 8.2
2018-Feb-15 10:00N 51°15' E 001°46'5 9.4
2018-Feb-15 09:30N 51°19' E 001°51'510.4
2018-Feb-15 09:00N 51°23' E 001°55'511.0
2018-Feb-15 08:30N 51°27' E 002°00'611.1
2018-Feb-15 08:00N 51°32' E 002°06'510.9
2018-Feb-15 07:30N 51°36' E 002°11'510.9
2018-Feb-15 07:00N 51°40' E 002°17'5 9.9
2018-Feb-15 06:30N 51°44' E 002°22'4 8.4
2018-Feb-15 05:59N 51°48' E 002°26'4 7.8
2018-Feb-15 05:26N 51°51' E 002°31'185 6.4
2018-Feb-14 00:21N 53°30' E 006°49'3 7.8
2018-Feb-14 00:00N 53°27' E 006°49'0 0.0
2018-Feb-13 16:41N 53°27' E 006°49'0 0.0
2018-Feb-13 16:29N 53°27' E 006°49'0 0.0
2018-Feb-13 15:59N 53°27' E 006°49'0 0.0
2018-Feb-13 15:26N 53°27' E 006°49'0 0.0
2018-Feb-13 14:59N 53°27' E 006°49'0 0.0
2018-Feb-13 14:23N 53°27' E 006°49'0 0.0
2018-Feb-13 13:59N 53°27' E 006°49'0 0.0
2018-Feb-13 13:23N 53°27' E 006°49'0 0.0
2018-Feb-13 12:53N 53°27' E 006°49'0 0.0
2018-Feb-13 12:29N 53°27' E 006°49'0 0.0
2018-Feb-13 11:53N 53°27' E 006°49'0 0.0
2018-Feb-13 11:23N 53°27' E 006°49'0 0.0
2018-Feb-13 10:59N 53°27' E 006°49'0 0.0
2018-Feb-13 09:41N 53°27' E 006°49'0 0.0
2018-Feb-13 09:29N 53°27' E 006°49'0 0.0
2018-Feb-13 05:14N 53°27' E 006°49'0 0.0
2018-Feb-13 04:11N 53°27' E 006°49'0 0.0
2018-Feb-13 03:23N 53°27' E 006°49'0 0.0
2018-Feb-13 02:29N 53°27' E 006°49'0 0.0
2018-Feb-13 01:53N 53°27' E 006°49'0 0.0
2018-Feb-13 01:29N 53°27' E 006°49'0 0.0
2018-Feb-13 00:53N 53°27' E 006°49'0 0.0
2018-Feb-13 00:29N 53°27' E 006°49'0 0.0
2018-Feb-12 23:53N 53°27' E 006°49'0 0.0
2018-Feb-12 23:30N 53°27' E 006°49'3 5.3
2018-Feb-12 23:00N 53°30' E 006°49'9 9.4
2018-Feb-12 22:02N 53°35' E 006°37'110.2
2018-Feb-12 21:55N 53°36' E 006°35'  
Track history (hours):
 
Tides and Currents Weather Stations Pressure Air Temp Water Temp Dewpoint Dewpoint Depression Visibility Wind Speed Wind Dir Waves Ship Positions

Vlieland

Last reported at 2018-Feb-21 14:30 UTC. Time now 2018-Feb-21 14:41 UTC.
Position N 43°19' W 001°54'.

Length 111 m; draft 5.8 m.

Type: Ship. MMSI: 244376000.

Date/timePositionNaut miles runAvg speedWind from/ knotsBaromVisibWave heightAir tempDewpointWater temp
2018-Feb-21 14:30N 43°19' W 001°54'0 0.0
2018-Feb-21 14:00N 43°19' W 001°54'0 0.0
2018-Feb-21 13:30N 43°19' W 001°54'0 0.0
2018-Feb-21 13:00N 43°19' W 001°54'0 0.0
2018-Feb-21 12:30N 43°19' W 001°54'0 0.0
2018-Feb-21 12:00N 43°19' W 001°54'0 0.0
2018-Feb-21 11:30N 43°19' W 001°54'0 0.0
2018-Feb-21 11:00N 43°19' W 001°54'0 0.0
2018-Feb-21 10:30N 43°19' W 001°54'0 0.0
2018-Feb-21 09:58N 43°19' W 001°54'0 0.0
2018-Feb-21 09:29N 43°19' W 001°54'0 0.0
2018-Feb-21 09:00N 43°19' W 001°54'0 0.0
2018-Feb-21 08:30N 43°19' W 001°54'0 0.0
2018-Feb-21 08:00N 43°19' W 001°54'0 0.0
2018-Feb-21 07:30N 43°19' W 001°54'0 0.0
2018-Feb-21 07:00N 43°19' W 001°54'0 0.0
2018-Feb-21 06:30N 43°19' W 001°54'0 0.0
2018-Feb-21 05:58N 43°19' W 001°54'0 0.0
2018-Feb-21 05:30N 43°19' W 001°54'0 0.0
2018-Feb-21 05:00N 43°19' W 001°54'0 0.0
2018-Feb-21 04:30N 43°19' W 001°54'0 0.0
2018-Feb-21 04:01N 43°19' W 001°54'0 0.0
2018-Feb-21 03:30N 43°19' W 001°54'0 0.0
2018-Feb-21 02:58N 43°19' W 001°54'0 0.0
2018-Feb-21 02:29N 43°19' W 001°54'0 0.0
2018-Feb-21 02:00N 43°19' W 001°54'1 0.1
2018-Feb-20 19:20N 43°19' W 001°55'2 7.0
2018-Feb-20 19:00N 43°22' W 001°57'2 3.2
2018-Feb-20 18:31N 43°23' W 001°56'2 3.4
2018-Feb-20 18:00N 43°21' W 001°57'510.4
2018-Feb-20 17:30N 43°22' W 002°04'612.0
2018-Feb-20 17:00N 43°23' W 002°12'612.4
2018-Feb-20 16:30N 43°24' W 002°20'611.6
2018-Feb-20 16:00N 43°25' W 002°28'612.2
2018-Feb-20 15:30N 43°27' W 002°36'612.7
2018-Feb-20 15:01N 43°28' W 002°45'612.5
2018-Feb-20 14:31N 43°29' W 002°53'612.0
2018-Feb-20 14:00N 43°26' W 003°01'5 9.6
2018-Feb-20 13:31N 43°23' W 003°05'3 5.9
2018-Feb-20 13:01N 43°21' W 003°02'0 0.0
2018-Feb-20 12:30N 43°21' W 003°02'0 0.0
2018-Feb-20 12:00N 43°21' W 003°02'0 0.0
2018-Feb-20 11:30N 43°21' W 003°02'0 0.0
2018-Feb-20 11:00N 43°21' W 003°02'0 0.0
2018-Feb-20 10:30N 43°21' W 003°02'0 0.0
2018-Feb-20 10:00N 43°21' W 003°02'0 0.0
2018-Feb-20 09:30N 43°21' W 003°02'0 0.0
2018-Feb-20 09:00N 43°21' W 003°02'0 0.0
2018-Feb-20 08:30N 43°21' W 003°02'0 0.0
2018-Feb-20 08:00N 43°21' W 003°02'0 0.0
2018-Feb-20 07:30N 43°21' W 003°02'0 0.0
2018-Feb-20 07:00N 43°21' W 003°02'0 0.0
2018-Feb-20 06:30N 43°21' W 003°02'0 0.0
2018-Feb-20 06:00N 43°21' W 003°02'0 0.0
2018-Feb-20 05:30N 43°21' W 003°02'0 0.0
2018-Feb-20 05:00N 43°21' W 003°02'0 0.0
2018-Feb-20 04:30N 43°21' W 003°02'0 0.0
2018-Feb-20 04:00N 43°21' W 003°02'0 0.0
2018-Feb-20 03:30N 43°21' W 003°02'0 0.0
2018-Feb-20 03:00N 43°21' W 003°02'0 0.0
2018-Feb-20 02:30N 43°21' W 003°02'0 0.0
2018-Feb-20 02:00N 43°21' W 003°02'0 0.0
2018-Feb-20 01:30N 43°21' W 003°02'0 0.0
2018-Feb-20 01:00N 43°21' W 003°02'0 0.0
2018-Feb-20 00:30N 43°21' W 003°02'0 0.0
2018-Feb-20 00:00N 43°21' W 003°02'0 0.0
2018-Feb-19 23:30N 43°21' W 003°02'0 0.0
2018-Feb-19 23:00N 43°21' W 003°02'0 0.0
2018-Feb-19 22:30N 43°21' W 003°02'0 0.0
2018-Feb-19 22:00N 43°21' W 003°02'0 0.0
2018-Feb-19 21:24N 43°21' W 003°02'0 0.0
2018-Feb-19 21:00N 43°21' W 003°02'0 0.0
2018-Feb-19 20:30N 43°21' W 003°02'0 0.0
2018-Feb-19 19:57N 43°21' W 003°02'0 0.0
2018-Feb-19 19:30N 43°21' W 003°02'0 0.0
2018-Feb-19 19:00N 43°21' W 003°02'0 0.0
2018-Feb-19 18:30N 43°21' W 003°02'0 0.0
2018-Feb-19 18:00N 43°21' W 003°02'0 0.0
2018-Feb-19 17:30N 43°21' W 003°02'0 0.0
2018-Feb-19 17:00N 43°21' W 003°02'0 0.0
2018-Feb-19 16:30N 43°21' W 003°02'0 0.0
2018-Feb-19 16:00N 43°21' W 003°02'0 0.0
2018-Feb-19 15:27N 43°21' W 003°02'0 0.0
2018-Feb-19 15:00N 43°21' W 003°02'0 0.0
2018-Feb-19 14:30N 43°21' W 003°02'0 0.0
2018-Feb-19 14:00N 43°21' W 003°02'0 0.0
2018-Feb-19 13:30N 43°21' W 003°02'0 0.0
2018-Feb-19 13:00N 43°21' W 003°02'0 0.0
2018-Feb-19 12:30N 43°21' W 003°02'0 0.0
2018-Feb-19 12:00N 43°21' W 003°02'0 0.0
2018-Feb-19 11:30N 43°21' W 003°02'0 0.0
2018-Feb-19 11:00N 43°21' W 003°02'0 0.0
2018-Feb-19 10:30N 43°21' W 003°02'0 0.0
2018-Feb-19 10:00N 43°21' W 003°02'0 0.0
2018-Feb-19 09:30N 43°21' W 003°02'0 0.0
2018-Feb-19 09:00N 43°21' W 003°02'0 0.0
2018-Feb-19 08:24N 43°21' W 003°02'0 0.0
2018-Feb-19 08:00N 43°21' W 003°02'0 0.0
2018-Feb-19 07:30N 43°21' W 003°02'0 0.0
2018-Feb-19 07:00N 43°21' W 003°02'0 0.0
2018-Feb-19 06:30N 43°21' W 003°02'0 0.0
2018-Feb-19 06:00N 43°21' W 003°02'0 0.0
2018-Feb-19 05:30N 43°21' W 003°02'0 0.0
2018-Feb-19 05:00N 43°21' W 003°02'0 0.0
2018-Feb-19 04:30N 43°21' W 003°02'0 0.0
2018-Feb-19 04:00N 43°21' W 003°02'0 0.0
2018-Feb-19 03:30N 43°21' W 003°02'0 0.0
2018-Feb-19 03:00N 43°21' W 003°02'0 0.0
2018-Feb-19 02:30N 43°21' W 003°02'0 0.0
2018-Feb-19 02:00N 43°21' W 003°02'0 0.0
2018-Feb-19 01:30N 43°21' W 003°02'0 0.0
2018-Feb-19 01:00N 43°21' W 003°02'0 0.0
2018-Feb-19 00:30N 43°21' W 003°02'0 0.0
2018-Feb-19 00:00N 43°21' W 003°02'0 0.0
2018-Feb-18 23:30N 43°21' W 003°02'0 0.0
2018-Feb-18 23:00N 43°21' W 003°02'0 0.0
2018-Feb-18 22:30N 43°21' W 003°02'0 0.0
2018-Feb-18 22:00N 43°21' W 003°02'0 0.0
2018-Feb-18 21:30N 43°21' W 003°02'0 0.0
2018-Feb-18 21:00N 43°21' W 003°02'0 0.0
2018-Feb-18 20:30N 43°21' W 003°02'0 0.0
2018-Feb-18 20:00N 43°21' W 003°02'0 0.0
2018-Feb-18 19:30N 43°21' W 003°02'0 0.0
2018-Feb-18 19:00N 43°21' W 003°02'0 0.0
2018-Feb-18 18:30N 43°21' W 003°02'0 0.0
2018-Feb-18 18:00N 43°21' W 003°02'0 0.0
2018-Feb-18 17:30N 43°21' W 003°02'0 0.0
2018-Feb-18 17:00N 43°21' W 003°02'0 0.0
2018-Feb-18 16:30N 43°21' W 003°02'0 0.0
2018-Feb-18 16:00N 43°21' W 003°02'0 0.0
2018-Feb-18 15:30N 43°21' W 003°02'0 0.0
2018-Feb-18 15:00N 43°21' W 003°02'0 0.0
2018-Feb-18 14:30N 43°21' W 003°02'0 0.0
2018-Feb-18 14:00N 43°21' W 003°02'0 0.0
2018-Feb-18 13:30N 43°21' W 003°02'0 0.0
2018-Feb-18 13:00N 43°21' W 003°02'0 0.0
2018-Feb-18 12:30N 43°21' W 003°02'0 0.0
2018-Feb-18 12:00N 43°21' W 003°02'0 0.0
2018-Feb-18 11:30N 43°21' W 003°02'0 0.0
2018-Feb-18 11:00N 43°21' W 003°02'2 4.4
2018-Feb-18 10:30N 43°22' W 003°04'5 9.1
2018-Feb-18 09:59N 43°27' W 003°07'510.1
2018-Feb-18 09:30N 43°31' W 003°08'6 9.9
2018-Feb-18 08:55N 43°37' W 003°11'4 9.6
2018-Feb-18 08:30N 43°41' W 003°13'8 9.6
2018-Feb-18 07:42N 43°48' W 003°16'2 9.6
2018-Feb-18 07:27N 43°50' W 003°17'242 9.2
2018-Feb-17 05:03N 47°41' W 005°03'1 9.1
2018-Feb-17 04:54N 47°42' W 005°03'4 8.7
2018-Feb-17 04:29N 47°46' W 005°05'4 8.3
2018-Feb-17 04:00N 47°49' W 005°07'4 7.9
2018-Feb-17 03:29N 47°54' W 005°08'4 7.4
2018-Feb-17 03:00N 47°57' W 005°10'3 7.0
2018-Feb-17 02:30N 48°00' W 005°11'3 6.8
2018-Feb-17 02:00N 48°03' W 005°13'4 7.3
2018-Feb-17 01:30N 48°07' W 005°14'4 7.6
2018-Feb-17 01:01N 48°11' W 005°16'4 8.1
2018-Feb-17 00:31N 48°14' W 005°18'5 8.6
2018-Feb-16 23:57N 48°19' W 005°21'5 9.1
2018-Feb-16 23:27N 48°23' W 005°23'4 9.7
2018-Feb-16 23:00N 48°27' W 005°24'1410.6
2018-Feb-16 21:43N 48°39' W 005°14'211.4
2018-Feb-16 21:30N 48°41' W 005°11'610.8
2018-Feb-16 20:59N 48°45' W 005°05'510.6
2018-Feb-16 20:31N 48°48' W 004°59'610.2
2018-Feb-16 19:55N 48°52' W 004°52'6 9.4
2018-Feb-16 19:14N 48°56' W 004°44'8 8.4
2018-Feb-16 18:17N 49°01' W 004°35'5 7.8
2018-Feb-16 17:42N 49°04' W 004°30'3 7.5
2018-Feb-16 17:16N 49°06' W 004°26'58 9.2
2018-Feb-16 10:57N 49°45' W 003°20'4 9.6
2018-Feb-16 10:30N 49°47' W 003°14'12 8.7
2018-Feb-16 09:05N 49°55' W 002°59'1 8.0
2018-Feb-16 09:00N 49°55' W 002°58'4 7.6
2018-Feb-16 08:30N 49°57' W 002°54'8 7.1
2018-Feb-16 07:26N 49°60' W 002°42'3 6.7
2018-Feb-16 07:00N 50°00' W 002°38'32 8.8
2018-Feb-16 03:25N 50°10' W 001°51'611.8
2018-Feb-16 02:52N 50°12' W 001°41'512.0
2018-Feb-16 02:28N 50°13' W 001°34'612.1
2018-Feb-16 02:00N 50°15' W 001°26'611.9
2018-Feb-16 01:30N 50°17' W 001°17'33 9.2
2018-Feb-15 21:53N 50°26' W 000°27'2 6.5
2018-Feb-15 21:30N 50°27' W 000°23'4 6.6
2018-Feb-15 20:58N 50°27' W 000°18'3 6.8
2018-Feb-15 20:29N 50°28' W 000°13'3 7.1
2018-Feb-15 20:00N 50°29' W 000°08'4 7.4
2018-Feb-15 19:30N 50°31' W 000°02'4 8.0
2018-Feb-15 19:00N 50°32' E 000°04'5 9.2
2018-Feb-15 18:31N 50°33' E 000°10'5 9.3
2018-Feb-15 18:00N 50°35' E 000°18'510.1
2018-Feb-15 17:30N 50°36' E 000°25'510.5
2018-Feb-15 17:00N 50°38' E 000°33'510.7
2018-Feb-15 16:30N 50°41' E 000°40'510.8
2018-Feb-15 16:00N 50°44' E 000°47'510.3
2018-Feb-15 15:30N 50°47' E 000°53'5 9.8
2018-Feb-15 15:00N 50°50' E 000°59'5 9.5
2018-Feb-15 14:30N 50°53' E 001°05'5 9.1
2018-Feb-15 14:00N 50°56' E 001°11'4 8.5
2018-Feb-15 13:30N 50°59' E 001°16'4 7.6
2018-Feb-15 13:00N 51°01' E 001°21'3 7.1
2018-Feb-15 12:30N 51°03' E 001°25'3 6.9
2018-Feb-15 12:00N 51°06' E 001°29'3 6.3
2018-Feb-15 11:30N 51°08' E 001°33'3 6.4
2018-Feb-15 11:00N 51°10' E 001°37'4 7.2
2018-Feb-15 10:30N 51°12' E 001°42'4 8.2
2018-Feb-15 10:00N 51°15' E 001°46'5 9.4
2018-Feb-15 09:30N 51°19' E 001°51'510.4
2018-Feb-15 09:00N 51°23' E 001°55'511.0
2018-Feb-15 08:30N 51°27' E 002°00'611.1
2018-Feb-15 08:00N 51°32' E 002°06'510.9
2018-Feb-15 07:30N 51°36' E 002°11'510.9
2018-Feb-15 07:00N 51°40' E 002°17'5 9.9
2018-Feb-15 06:30N 51°44' E 002°22'4 8.4
2018-Feb-15 05:59N 51°48' E 002°26'4 7.8
2018-Feb-15 05:26N 51°51' E 002°31'185 6.4
2018-Feb-14 00:21N 53°30' E 006°49'3 7.8
2018-Feb-14 00:00N 53°27' E 006°49'0 0.0
2018-Feb-13 16:41N 53°27' E 006°49'0 0.0
2018-Feb-13 16:29N 53°27' E 006°49'0 0.0
2018-Feb-13 15:59N 53°27' E 006°49'0 0.0
2018-Feb-13 15:26N 53°27' E 006°49'0 0.0
2018-Feb-13 14:59N 53°27' E 006°49'0 0.0
2018-Feb-13 14:23N 53°27' E 006°49'0 0.0
2018-Feb-13 13:59N 53°27' E 006°49'0 0.0
2018-Feb-13 13:23N 53°27' E 006°49'0 0.0
2018-Feb-13 12:53N 53°27' E 006°49'0 0.0
2018-Feb-13 12:29N 53°27' E 006°49'0 0.0
2018-Feb-13 11:53N 53°27' E 006°49'0 0.0
2018-Feb-13 11:23N 53°27' E 006°49'0 0.0
2018-Feb-13 10:59N 53°27' E 006°49'0 0.0
2018-Feb-13 09:41N 53°27' E 006°49'0 0.0
2018-Feb-13 09:29N 53°27' E 006°49'0 0.0
2018-Feb-13 05:14N 53°27' E 006°49'0 0.0
2018-Feb-13 04:11N 53°27' E 006°49'0 0.0
2018-Feb-13 03:23N 53°27' E 006°49'0 0.0
2018-Feb-13 02:29N 53°27' E 006°49'0 0.0
2018-Feb-13 01:53N 53°27' E 006°49'0 0.0
2018-Feb-13 01:29N 53°27' E 006°49'0 0.0
2018-Feb-13 00:53N 53°27' E 006°49'0 0.0
2018-Feb-13 00:29N 53°27' E 006°49'0 0.0
2018-Feb-12 23:53N 53°27' E 006°49'0 0.0
2018-Feb-12 23:30N 53°27' E 006°49'3 5.3
2018-Feb-12 23:00N 53°30' E 006°49'9 9.4
2018-Feb-12 22:02N 53°35' E 006°37'110.2
2018-Feb-12 21:55N 53°36' E 006°35'  

Dump ship's entire track history